createdAt,value
2023-05-19T00:00:56.447Z,81.14
2023-05-19T00:01:56.481Z,80.98
2023-05-19T00:02:56.510Z,81.90
2023-05-19T00:03:56.413Z,82.31
2023-05-19T00:04:56.406Z,84.13
2023-05-19T00:05:56.417Z,84.99
2023-05-19T00:06:56.395Z,85.33
2023-05-19T00:07:56.371Z,85.48
2023-05-19T00:08:56.362Z,86.43
2023-05-19T00:09:56.351Z,87.19
2023-05-19T00:10:56.346Z,86.88
2023-05-19T00:11:56.363Z,88.47
2023-05-19T00:12:56.318Z,88.47
2023-05-19T00:13:56.311Z,88.26
2023-05-19T00:14:56.326Z,89.12
2023-05-19T00:15:56.318Z,89.97
2023-05-19T00:16:56.310Z,90.59
2023-05-19T00:17:56.274Z,90.50
2023-05-19T00:18:56.278Z,90.75
2023-05-19T00:19:56.244Z,90.61
2023-05-19T00:20:56.235Z,92.49
2023-05-19T00:21:56.226Z,93.00
2023-05-19T00:22:56.219Z,92.45
2023-05-19T00:23:56.239Z,92.30
2023-05-19T00:24:56.202Z,93.15
2023-05-19T00:25:56.181Z,92.41
2023-05-19T00:26:56.172Z,92.37
2023-05-19T00:27:56.182Z,93.85
2023-05-19T00:28:56.150Z,94.62
2023-05-19T00:29:56.141Z,94.41
2023-05-19T00:30:56.133Z,94.00
2023-05-19T00:31:56.157Z,93.58
2023-05-19T00:32:56.137Z,93.58
2023-05-19T00:33:56.100Z,93.19
2023-05-19T00:34:56.094Z,92.67
2023-05-19T00:35:56.078Z,91.32
2023-05-19T00:36:56.072Z,90.67
2023-05-19T00:37:56.063Z,90.03
2023-05-19T00:38:56.057Z,90.10
2023-05-19T00:39:56.037Z,90.61
2023-05-19T00:40:56.037Z,90.41
2023-05-19T00:41:56.017Z,90.80
2023-05-19T00:42:56.009Z,90.49
2023-05-19T00:43:56.029Z,90.61
2023-05-19T00:44:55.993Z,90.30
2023-05-19T00:45:55.989Z,89.72
2023-05-19T00:46:56.044Z,89.78
2023-05-19T00:47:56.045Z,90.75
2023-05-19T00:48:55.944Z,91.02
2023-05-19T00:49:55.935Z,91.93
2023-05-19T00:50:55.926Z,91.11
2023-05-19T00:51:55.917Z,91.58
2023-05-19T00:52:55.902Z,91.80
2023-05-19T00:53:55.899Z,91.14
2023-05-19T00:54:55.922Z,91.32
2023-05-19T00:55:55.876Z,91.25
2023-05-19T00:56:55.876Z,91.99
2023-05-19T00:57:55.854Z,92.08
2023-05-19T00:58:55.841Z,92.18
2023-05-19T00:59:55.857Z,92.30
2023-05-19T01:00:55.858Z,91.99
2023-05-19T01:01:55.820Z,92.26
2023-05-19T01:02:55.897Z,92.86
2023-05-19T01:03:55.965Z,92.30
2023-05-19T01:04:55.782Z,92.61
2023-05-19T01:05:55.781Z,92.80
2023-05-19T01:06:55.758Z,92.35
2023-05-19T01:07:55.754Z,92.86
2023-05-19T01:08:55.739Z,92.61
2023-05-19T01:09:55.731Z,93.30
2023-05-19T01:10:55.725Z,92.84
2023-05-19T01:11:55.750Z,93.26
2023-05-19T01:12:55.694Z,94.29
2023-05-19T01:13:55.688Z,94.50
2023-05-19T01:14:55.675Z,94.66
2023-05-19T01:15:55.762Z,94.73
2023-05-19T01:16:55.769Z,95.00
2023-05-19T01:17:55.666Z,95.59
2023-05-19T01:18:55.664Z,96.09
2023-05-19T01:19:55.624Z,95.65
2023-05-19T01:20:55.610Z,95.69
2023-05-19T01:21:55.601Z,95.53
2023-05-19T01:22:55.609Z,95.22
2023-05-19T01:23:55.583Z,95.55
2023-05-19T01:24:55.570Z,95.73
2023-05-19T01:25:55.558Z,96.19
2023-05-19T01:26:55.550Z,95.80
2023-05-19T01:27:55.541Z,96.30
2023-05-19T01:28:55.527Z,96.36
2023-05-19T01:29:55.515Z,96.46
2023-05-19T01:30:55.507Z,96.36
2023-05-19T01:31:55.542Z,96.36
2023-05-19T01:32:55.498Z,96.10
2023-05-19T01:33:55.480Z,96.10
2023-05-19T01:34:55.468Z,96.40
2023-05-19T01:35:55.461Z,96.36
2023-05-19T01:36:55.443Z,96.25
2023-05-19T01:37:55.437Z,96.50
2023-05-19T01:38:55.425Z,96.93
2023-05-19T01:39:55.420Z,97.29
2023-05-19T01:40:55.405Z,97.17
2023-05-19T01:41:55.395Z,97.24
2023-05-19T01:42:57.438Z,97.18
2023-05-19T01:43:55.388Z,97.17
2023-05-19T01:44:55.365Z,96.92
2023-05-19T01:45:55.423Z,97.02
2023-05-19T01:46:55.350Z,96.36
2023-05-19T01:47:55.422Z,95.53
2023-05-19T01:48:55.322Z,95.16
2023-05-19T01:49:55.327Z,95.16
2023-05-19T01:50:55.307Z,95.16
2023-05-19T01:51:55.295Z,95.16
2023-05-19T01:52:55.289Z,95.53
2023-05-19T01:53:55.273Z,95.47
2023-05-19T01:54:55.267Z,95.52
2023-05-19T01:55:55.251Z,95.22
2023-05-19T01:56:55.240Z,95.25
2023-05-19T01:57:55.228Z,95.45
2023-05-19T01:58:55.219Z,95.77
2023-05-19T01:59:55.214Z,95.48
2023-05-19T02:00:55.204Z,95.67
2023-05-19T02:01:55.194Z,95.93
2023-05-19T02:02:55.206Z,96.13
2023-05-19T02:03:55.334Z,96.09
2023-05-19T02:04:55.185Z,96.03
2023-05-19T02:05:55.147Z,96.13
2023-05-19T02:06:55.138Z,96.90
2023-05-19T02:07:55.126Z,97.24
2023-05-19T02:08:55.118Z,97.12
2023-05-19T02:09:55.109Z,97.67
2023-05-19T02:10:55.093Z,97.94
2023-05-19T02:11:55.084Z,97.77
2023-05-19T02:12:55.078Z,97.48
2023-05-19T02:13:55.061Z,97.18
2023-05-19T02:14:55.055Z,97.29
2023-05-19T02:15:55.060Z,97.17
2023-05-19T02:16:55.025Z,97.21
2023-05-19T02:17:55.039Z,97.32
2023-05-19T02:18:55.035Z,97.73
2023-05-19T02:19:55.023Z,98.35
2023-05-19T02:20:54.984Z,98.93
2023-05-19T02:21:54.996Z,98.40
2023-05-19T02:22:54.963Z,99.07
2023-05-19T02:23:54.955Z,98.72
2023-05-19T02:24:54.940Z,98.87
2023-05-19T02:25:54.932Z,99.09
2023-05-19T02:26:54.919Z,99.53
2023-05-19T02:27:54.917Z,99.28
2023-05-19T02:28:54.895Z,99.44
2023-05-19T02:29:54.901Z,99.74
2023-05-19T02:30:54.883Z,99.99
2023-05-19T02:31:54.947Z,99.99
2023-05-19T02:32:54.952Z,99.99
2023-05-19T02:33:54.848Z,99.99
2023-05-19T02:34:54.839Z,99.99
2023-05-19T02:35:54.852Z,99.99
2023-05-19T02:36:54.818Z,99.99
2023-05-19T02:37:54.809Z,99.99
2023-05-19T02:38:54.799Z,99.99
2023-05-19T02:39:54.794Z,99.99
2023-05-19T02:40:54.777Z,99.99
2023-05-19T02:41:54.762Z,99.99
2023-05-19T02:42:54.755Z,99.99
2023-05-19T02:43:54.746Z,99.99
2023-05-19T02:44:54.763Z,99.99
2023-05-19T02:45:54.790Z,99.99
2023-05-19T02:46:54.810Z,99.99
2023-05-19T02:47:54.779Z,99.99
2023-05-19T02:48:54.715Z,99.99
2023-05-19T02:49:54.692Z,99.99
2023-05-19T02:50:54.682Z,99.99
2023-05-19T02:51:54.689Z,99.99
2023-05-19T02:52:54.652Z,99.99
2023-05-19T02:53:54.651Z,99.99
2023-05-19T02:54:54.636Z,99.99
2023-05-19T02:55:54.630Z,99.99
2023-05-19T02:56:54.620Z,99.99
2023-05-19T02:57:54.608Z,99.99
2023-05-19T02:58:54.595Z,99.99
2023-05-19T02:59:54.590Z,99.99
2023-05-19T03:00:54.571Z,99.99
2023-05-19T03:01:54.593Z,99.99
2023-05-19T03:02:54.654Z,99.99
2023-05-19T03:03:54.611Z,99.99
2023-05-19T03:04:54.530Z,99.99
2023-05-19T03:05:54.524Z,99.99
2023-05-19T03:06:54.528Z,99.99
2023-05-19T03:07:54.541Z,99.99
2023-05-19T03:08:54.493Z,99.99
2023-05-19T03:09:54.485Z,99.99
2023-05-19T03:10:54.470Z,99.99
2023-05-19T03:11:54.466Z,99.99
2023-05-19T03:12:54.454Z,99.99
2023-05-19T03:13:54.443Z,99.99
2023-05-19T03:14:54.430Z,99.99
2023-05-19T03:15:54.434Z,99.99
2023-05-19T03:16:54.487Z,99.99
2023-05-19T03:17:54.480Z,99.99
2023-05-19T03:18:54.431Z,99.99
2023-05-19T03:19:54.391Z,99.99
2023-05-19T03:20:54.376Z,99.99
2023-05-19T03:21:54.365Z,99.99
2023-05-19T03:22:54.358Z,99.99
2023-05-19T03:23:54.363Z,99.99
2023-05-19T03:24:54.339Z,99.99
2023-05-19T03:25:54.357Z,99.99
2023-05-19T03:26:54.323Z,99.99
2023-05-19T03:27:54.307Z,99.99
2023-05-19T03:28:54.296Z,99.99
2023-05-19T03:29:54.287Z,99.99
2023-05-19T03:30:54.285Z,99.99
2023-05-19T03:31:54.306Z,99.99
2023-05-19T03:32:54.378Z,99.99
2023-05-19T03:33:54.250Z,99.99
2023-05-19T03:34:54.235Z,99.99
2023-05-19T03:35:54.227Z,99.99
2023-05-19T03:36:54.213Z,99.99
2023-05-19T03:37:54.208Z,99.99
2023-05-19T03:38:54.203Z,99.99
2023-05-19T03:39:54.219Z,99.99
2023-05-19T03:40:54.178Z,99.99
2023-05-19T03:41:54.175Z,99.99
2023-05-19T03:42:54.165Z,99.99
2023-05-19T03:43:54.154Z,99.99
2023-05-19T03:44:54.137Z,99.99
2023-05-19T03:45:54.153Z,99.99
2023-05-19T03:46:54.116Z,99.99
2023-05-19T03:47:54.168Z,99.99
2023-05-19T03:48:54.106Z,99.99
2023-05-19T03:49:54.085Z,99.99
2023-05-19T03:50:54.078Z,99.99
2023-05-19T03:51:54.070Z,99.99
2023-05-19T03:52:54.056Z,99.99
2023-05-19T03:53:54.049Z,99.99
2023-05-19T03:54:54.038Z,99.99
2023-05-19T03:55:54.049Z,99.99
2023-05-19T03:56:54.016Z,99.99
2023-05-19T03:57:54.005Z,99.99
2023-05-19T03:58:53.995Z,99.99
2023-05-19T03:59:53.985Z,99.99
2023-05-19T04:00:53.973Z,99.99
2023-05-19T04:01:53.978Z,99.99
2023-05-19T04:02:54.032Z,99.99
2023-05-19T04:03:53.948Z,99.99
2023-05-19T04:04:54.109Z,99.99
2023-05-19T04:05:53.924Z,99.99
2023-05-19T04:06:53.912Z,99.99
2023-05-19T04:07:53.903Z,99.99
2023-05-19T04:08:53.894Z,99.99
2023-05-19T04:09:53.880Z,99.99
2023-05-19T04:10:53.879Z,99.99
2023-05-19T04:11:53.886Z,99.99
2023-05-19T04:12:53.850Z,99.99
2023-05-19T04:13:53.839Z,99.99
2023-05-19T04:14:53.841Z,99.99
2023-05-19T04:15:53.838Z,99.99
2023-05-19T04:16:53.810Z,99.99
2023-05-19T04:17:53.842Z,99.99
2023-05-19T04:18:53.802Z,99.99
2023-05-19T04:19:53.784Z,99.99
2023-05-19T04:20:53.766Z,99.99
2023-05-19T04:21:53.757Z,99.99
2023-05-19T04:22:53.744Z,99.99
2023-05-19T04:23:53.738Z,99.99
2023-05-19T04:24:53.745Z,99.99
2023-05-19T04:25:53.723Z,99.99
2023-05-19T04:26:53.703Z,99.99
2023-05-19T04:27:53.713Z,99.99
2023-05-19T04:28:53.678Z,99.99
2023-05-19T04:29:53.698Z,99.99
2023-05-19T04:30:53.719Z,99.99
2023-05-19T04:31:53.658Z,99.99
2023-05-19T04:32:53.661Z,99.99
2023-05-19T04:33:53.636Z,99.99
2023-05-19T04:34:53.640Z,99.99
2023-05-19T04:35:53.618Z,99.99
2023-05-19T04:36:53.703Z,99.99
2023-05-19T04:37:53.601Z,99.99
2023-05-19T04:38:53.577Z,99.99
2023-05-19T04:39:53.573Z,99.99
2023-05-19T04:40:53.568Z,99.99
2023-05-19T04:41:53.546Z,99.99
2023-05-19T04:42:53.535Z,99.99
2023-05-19T04:43:53.544Z,99.99
2023-05-19T04:44:53.512Z,99.99
2023-05-19T04:45:53.521Z,99.99
2023-05-19T04:46:53.527Z,99.99
2023-05-19T04:47:53.524Z,99.99
2023-05-19T04:48:53.478Z,99.99
2023-05-19T04:49:53.474Z,99.99
2023-05-19T04:50:53.500Z,99.99
2023-05-19T04:51:55.731Z,99.99
2023-05-19T04:52:53.427Z,99.99
2023-05-19T04:53:53.424Z,99.99
2023-05-19T04:54:53.414Z,99.99
2023-05-19T04:55:53.405Z,99.99
2023-05-19T04:56:53.406Z,99.99
2023-05-19T04:57:53.384Z,99.99
2023-05-19T04:58:53.370Z,99.58
2023-05-19T04:59:53.381Z,98.59
2023-05-19T05:00:53.349Z,98.29
2023-05-19T05:01:53.410Z,96.80
2023-05-19T05:02:53.471Z,95.72
2023-05-19T05:03:53.362Z,93.82
2023-05-19T05:04:53.307Z,92.12
2023-05-19T05:05:53.296Z,92.28
2023-05-19T05:06:53.293Z,92.60
2023-05-19T05:07:53.274Z,91.21
2023-05-19T05:08:53.277Z,90.42
2023-05-19T05:09:53.253Z,88.33
2023-05-19T05:10:53.242Z,88.01
2023-05-19T05:11:53.229Z,87.38
2023-05-19T05:12:53.221Z,87.28
2023-05-19T05:13:53.209Z,87.11
2023-05-19T05:14:53.204Z,85.98
2023-05-19T05:15:53.262Z,85.22
2023-05-19T05:16:53.377Z,84.53
2023-05-19T05:17:53.240Z,83.80
2023-05-19T05:18:53.176Z,84.56
2023-05-19T05:19:53.154Z,84.09
2023-05-19T05:20:53.138Z,83.78
2023-05-19T05:21:53.128Z,83.02
2023-05-19T05:22:53.117Z,82.47
2023-05-19T05:23:53.102Z,84.42
2023-05-19T05:24:53.095Z,83.50
2023-05-19T05:25:53.098Z,82.61
2023-05-19T05:26:53.075Z,83.36
2023-05-19T05:27:53.062Z,83.66
2023-05-19T05:28:53.066Z,82.71
2023-05-19T05:29:53.061Z,82.26
2023-05-19T05:30:53.038Z,81.51
2023-05-19T05:31:53.064Z,82.23
2023-05-19T05:32:53.070Z,81.30
2023-05-19T05:33:53.001Z,80.38
2023-05-19T05:34:53.007Z,79.73
2023-05-19T05:35:52.986Z,80.31
2023-05-19T05:36:52.973Z,79.79
2023-05-19T05:37:52.962Z,80.54
2023-05-19T05:38:52.950Z,81.02
2023-05-19T05:39:52.940Z,79.28
2023-05-19T05:40:52.927Z,78.63
2023-05-19T05:41:52.921Z,77.91
2023-05-19T05:42:52.910Z,77.67
2023-05-19T05:43:52.923Z,79.51
2023-05-19T05:44:52.891Z,78.56
2023-05-19T05:45:52.899Z,77.42
2023-05-19T05:46:52.870Z,77.94
2023-05-19T05:47:52.968Z,77.77
2023-05-19T05:48:52.846Z,76.91
2023-05-19T05:49:53.580Z,77.02
2023-05-19T05:50:52.844Z,77.05
2023-05-19T05:52:05.126Z,77.25
2023-05-19T05:52:53.846Z,76.50
2023-05-19T05:53:52.800Z,76.23
2023-05-19T05:54:52.786Z,75.45
2023-05-19T05:55:52.777Z,76.67
2023-05-19T05:56:52.768Z,75.65
2023-05-19T05:57:52.753Z,76.57
2023-05-19T05:58:52.743Z,75.34
2023-05-19T05:59:52.740Z,73.12
2023-05-19T06:00:52.726Z,72.38
2023-05-19T06:01:52.713Z,71.72
2023-05-19T06:02:52.842Z,72.00
2023-05-19T06:03:52.800Z,72.51
2023-05-19T06:04:52.680Z,70.98
2023-05-19T06:05:52.780Z,71.11
2023-05-19T06:06:52.671Z,70.50
2023-05-19T06:07:52.659Z,69.35
2023-05-19T06:08:52.645Z,67.62
2023-05-19T06:09:52.653Z,68.53
2023-05-19T06:10:52.643Z,66.40
2023-05-19T06:11:52.626Z,64.88
2023-05-19T06:12:52.604Z,62.95
2023-05-19T06:13:52.591Z,61.77
2023-05-19T06:14:52.591Z,61.40
2023-05-19T06:15:52.629Z,59.97
2023-05-19T06:16:52.559Z,60.89
2023-05-19T06:17:52.591Z,61.25
2023-05-19T06:18:52.571Z,60.89
2023-05-19T06:19:52.599Z,59.36
2023-05-19T06:20:52.525Z,60.86
2023-05-19T06:21:52.510Z,60.86
2023-05-19T06:22:52.498Z,61.27
2023-05-19T06:23:52.496Z,59.61
2023-05-19T06:24:52.478Z,60.05
2023-05-19T06:25:52.468Z,59.44
2023-05-19T06:26:52.463Z,61.34
2023-05-19T06:27:52.454Z,58.14
2023-05-19T06:28:52.449Z,58.77
2023-05-19T06:29:52.425Z,57.12
2023-05-19T06:30:52.412Z,57.68
2023-05-19T06:31:52.504Z,58.19
2023-05-19T06:32:52.429Z,58.74
2023-05-19T06:33:52.385Z,56.31
2023-05-19T06:34:52.377Z,57.53
2023-05-19T06:35:52.392Z,59.58
2023-05-19T06:36:52.354Z,58.47
2023-05-19T06:37:52.400Z,59.71
2023-05-19T06:38:52.362Z,57.35
2023-05-19T06:39:52.383Z,56.13
2023-05-19T06:40:52.320Z,57.48
2023-05-19T06:41:52.317Z,57.96
2023-05-19T06:42:52.306Z,57.12
2023-05-19T06:43:52.321Z,56.15
2023-05-19T06:44:52.301Z,56.43
2023-05-19T06:45:52.346Z,56.35
2023-05-19T06:46:52.293Z,53.32
2023-05-19T06:47:52.370Z,54.93
2023-05-19T06:48:52.318Z,55.90
2023-05-19T06:49:52.232Z,54.60
2023-05-19T06:50:52.228Z,52.99
2023-05-19T06:51:52.319Z,51.85
2023-05-19T06:52:52.215Z,51.12
2023-05-19T06:53:52.188Z,52.96
2023-05-19T06:54:52.177Z,53.09
2023-05-19T06:55:58.561Z,50.48
2023-05-19T06:56:53.190Z,51.27
2023-05-19T06:57:52.147Z,48.82
2023-05-19T06:58:52.148Z,51.73
2023-05-19T06:59:52.130Z,51.85
2023-05-19T07:00:52.123Z,53.69
2023-05-19T07:01:52.154Z,51.65
2023-05-19T07:02:52.172Z,52.58
2023-05-19T07:03:52.187Z,52.38
2023-05-19T07:04:52.083Z,50.57
2023-05-19T07:05:52.078Z,49.27
2023-05-19T07:06:52.065Z,48.75
2023-05-19T07:07:52.096Z,50.26
2023-05-19T07:08:52.042Z,50.97
2023-05-19T07:09:52.032Z,50.82
2023-05-19T07:10:52.023Z,49.78
2023-05-19T07:11:52.015Z,54.10
2023-05-19T07:12:52.005Z,51.40
2023-05-19T07:13:51.993Z,51.12
2023-05-19T07:14:51.994Z,77.06
2023-05-19T07:15:52.013Z,81.65
2023-05-19T07:16:52.173Z,78.41
2023-05-19T07:17:51.992Z,72.68
2023-05-19T07:18:51.971Z,73.26
2023-05-19T07:19:51.935Z,72.38
2023-05-19T07:20:51.931Z,69.20
2023-05-19T07:21:51.915Z,68.52
2023-05-19T07:22:51.908Z,70.58
2023-05-19T07:23:51.931Z,69.06
2023-05-19T07:24:51.892Z,68.14
2023-05-19T07:25:51.876Z,70.28
2023-05-19T07:26:51.870Z,67.77
2023-05-19T07:27:51.855Z,69.33
2023-05-19T07:28:51.864Z,68.86
2023-05-19T07:29:51.849Z,63.77
2023-05-19T07:30:51.828Z,63.64
2023-05-19T07:31:51.868Z,62.09
2023-05-19T07:32:51.881Z,62.96
2023-05-19T07:33:54.531Z,63.10
2023-05-19T07:34:51.791Z,63.26
2023-05-19T07:35:51.779Z,60.60
2023-05-19T07:36:51.777Z,60.86
2023-05-19T07:37:51.759Z,58.72
2023-05-19T07:38:51.807Z,56.37
2023-05-19T07:39:51.760Z,56.75
2023-05-19T07:40:51.728Z,55.99
2023-05-19T07:41:51.722Z,53.07
2023-05-19T07:42:51.711Z,54.58
2023-05-19T07:43:51.699Z,56.24
2023-05-19T07:44:51.692Z,53.39
2023-05-19T07:45:51.696Z,52.36
2023-05-19T07:46:51.695Z,54.47
2023-05-19T07:47:51.714Z,54.40
2023-05-19T07:48:51.655Z,50.23
2023-05-19T07:49:52.162Z,48.64
2023-05-19T07:50:51.636Z,53.02
2023-05-19T07:51:51.630Z,48.64
2023-05-19T07:52:51.612Z,52.36
2023-05-19T07:53:51.599Z,51.96
2023-05-19T07:54:51.598Z,52.49
2023-05-19T07:55:51.625Z,48.88
2023-05-19T07:56:51.578Z,49.18
2023-05-19T07:57:51.566Z,51.98
2023-05-19T07:58:51.562Z,51.98
2023-05-19T07:59:51.548Z,48.94
2023-05-19T08:00:51.534Z,50.47
2023-05-19T08:01:51.536Z,51.98
2023-05-19T08:02:51.606Z,51.78
2023-05-19T08:03:51.590Z,49.74
2023-05-19T08:04:51.630Z,49.70
2023-05-19T08:05:51.486Z,49.47
2023-05-19T08:06:51.563Z,46.75
2023-05-19T08:07:51.465Z,48.26
2023-05-19T08:08:51.456Z,48.92
2023-05-19T08:09:51.444Z,48.65
2023-05-19T08:10:51.438Z,47.52
2023-05-19T08:11:51.693Z,46.58
2023-05-19T08:12:51.426Z,47.58
2023-05-19T08:13:51.410Z,45.86
2023-05-19T08:14:51.414Z,44.31
2023-05-19T08:15:51.438Z,41.00
2023-05-19T08:16:51.379Z,45.58
2023-05-19T08:17:51.439Z,45.30
2023-05-19T08:18:51.373Z,43.38
2023-05-19T08:19:51.353Z,47.45
2023-05-19T08:20:51.337Z,49.72
2023-05-19T08:21:51.336Z,50.55
2023-05-19T08:22:51.324Z,46.25
2023-05-19T08:23:51.312Z,46.35
2023-05-19T08:24:51.302Z,46.45
2023-05-19T08:25:51.287Z,48.72
2023-05-19T08:26:51.282Z,48.02
2023-05-19T08:27:51.304Z,44.83
2023-05-19T08:28:51.264Z,46.45
2023-05-19T08:29:51.248Z,47.33
2023-05-19T08:30:51.237Z,49.35
2023-05-19T08:31:51.253Z,47.03
2023-05-19T08:32:51.350Z,44.83
2023-05-19T08:33:51.214Z,46.91
2023-05-19T08:34:51.205Z,45.10
2023-05-19T08:35:51.198Z,45.18
2023-05-19T08:36:51.182Z,43.21
2023-05-19T08:37:51.187Z,43.90
2023-05-19T08:38:51.163Z,46.03
2023-05-19T08:39:51.157Z,45.50
2023-05-19T08:40:51.159Z,44.80
2023-05-19T08:41:51.130Z,43.71
2023-05-19T08:42:51.134Z,46.04
2023-05-19T08:43:51.202Z,43.31
2023-05-19T08:44:51.105Z,44.42
2023-05-19T08:45:51.089Z,43.98
2023-05-19T08:46:51.130Z,45.16
2023-05-19T08:47:51.204Z,43.09
2023-05-19T08:48:51.062Z,44.74
2023-05-19T08:49:51.052Z,45.00
2023-05-19T08:50:51.049Z,42.77
2023-05-19T08:51:51.029Z,41.97
2023-05-19T08:52:52.831Z,45.04
2023-05-19T08:53:51.025Z,45.14
2023-05-19T08:54:51.000Z,46.08
2023-05-19T08:55:50.990Z,47.95
2023-05-19T08:56:50.980Z,43.07
2023-05-19T08:57:50.982Z,41.85
2023-05-19T08:58:50.971Z,42.13
2023-05-19T08:59:50.982Z,40.99
2023-05-19T09:00:50.953Z,42.53
2023-05-19T09:01:50.947Z,41.69
2023-05-19T09:03:00.140Z,42.15
2023-05-19T09:03:52.034Z,40.94
2023-05-19T09:04:50.942Z,39.99
2023-05-19T09:05:50.963Z,43.31
2023-05-19T09:06:50.878Z,42.91
2023-05-19T09:07:50.872Z,42.13
2023-05-19T09:08:50.871Z,41.49
2023-05-19T09:09:50.856Z,42.97
2023-05-19T09:10:50.839Z,43.81
2023-05-19T09:11:50.843Z,42.15
2023-05-19T09:12:50.820Z,44.15
2023-05-19T09:13:50.812Z,45.03
2023-05-19T09:14:50.800Z,44.50
2023-05-19T09:15:50.821Z,45.58
2023-05-19T09:16:50.837Z,43.40
2023-05-19T09:17:50.786Z,45.18
2023-05-19T09:18:50.787Z,43.43
2023-05-19T09:19:50.751Z,42.01
2023-05-19T09:20:50.743Z,42.17
2023-05-19T09:21:50.739Z,43.15
2023-05-19T09:22:50.722Z,45.51
2023-05-19T09:23:50.711Z,41.35
2023-05-19T09:24:50.701Z,41.71
2023-05-19T09:25:50.700Z,41.89
2023-05-19T09:26:50.677Z,42.17
2023-05-19T09:27:50.675Z,45.28
2023-05-19T09:28:50.659Z,42.83
2023-05-19T09:29:50.653Z,46.12
2023-05-19T09:30:50.637Z,41.00
2023-05-19T09:31:50.712Z,41.08
2023-05-19T09:32:50.664Z,41.05
2023-05-19T09:33:50.611Z,42.47
2023-05-19T09:34:50.651Z,44.90
2023-05-19T09:35:50.591Z,42.31
2023-05-19T09:36:50.581Z,43.38
2023-05-19T09:37:50.572Z,46.52
2023-05-19T09:38:50.558Z,44.67
2023-05-19T09:39:50.553Z,45.25
2023-05-19T09:40:50.533Z,44.61
2023-05-19T09:41:50.530Z,42.23
2023-05-19T09:42:50.523Z,45.49
2023-05-19T09:43:50.508Z,45.11
2023-05-19T09:44:50.497Z,46.44
2023-05-19T09:45:50.524Z,47.20
2023-05-19T09:46:50.473Z,45.73
2023-05-19T09:47:50.557Z,47.92
2023-05-19T09:48:50.455Z,49.76
2023-05-19T09:49:50.450Z,46.24
2023-05-19T09:50:50.431Z,44.56
2023-05-19T09:51:50.428Z,44.90
2023-05-19T09:52:50.415Z,42.99
2023-05-19T09:53:50.401Z,45.57
2023-05-19T09:54:50.390Z,44.84
2023-05-19T09:55:50.382Z,45.74
2023-05-19T09:56:50.369Z,42.71
2023-05-19T09:57:50.366Z,41.71
2023-05-19T09:58:50.352Z,41.07
2023-05-19T09:59:50.342Z,40.81
2023-05-19T10:00:50.338Z,38.26
2023-05-19T10:01:50.342Z,42.17
2023-05-19T10:02:50.349Z,42.39
2023-05-19T10:03:50.349Z,39.84
2023-05-19T10:04:50.351Z,41.25
2023-05-19T10:05:50.279Z,38.08
2023-05-19T10:06:50.264Z,40.63
2023-05-19T10:07:50.259Z,45.86
2023-05-19T10:08:50.246Z,43.82
2023-05-19T10:09:50.252Z,41.55
2023-05-19T10:10:50.226Z,45.37
2023-05-19T10:11:50.220Z,44.28
2023-05-19T10:12:50.231Z,46.27
2023-05-19T10:13:50.200Z,43.17
2023-05-19T10:14:50.185Z,43.88
2023-05-19T10:15:58.209Z,42.03
2023-05-19T10:16:51.254Z,43.29
2023-05-19T10:17:50.183Z,42.79
2023-05-19T10:18:50.190Z,40.05
2023-05-19T10:19:50.176Z,38.73
2023-05-19T10:20:50.145Z,41.73
2023-05-19T10:21:50.121Z,40.55
2023-05-19T10:22:50.106Z,39.56
2023-05-19T10:23:50.095Z,40.39
2023-05-19T10:24:50.087Z,41.79
2023-05-19T10:25:50.075Z,42.25
2023-05-19T10:26:50.065Z,43.27
2023-05-19T10:27:50.054Z,38.25
2023-05-19T10:28:50.048Z,40.75
2023-05-19T10:29:50.042Z,43.31
2023-05-19T10:30:50.027Z,40.91
2023-05-19T10:31:50.065Z,41.13
2023-05-19T10:32:50.030Z,42.81
2023-05-19T10:33:49.995Z,40.49
2023-05-19T10:34:49.984Z,41.00
2023-05-19T10:35:49.997Z,40.46
2023-05-19T10:36:49.969Z,41.85
2023-05-19T10:37:49.955Z,42.63
2023-05-19T10:38:49.948Z,41.05
2023-05-19T10:39:49.934Z,40.81
2023-05-19T10:40:49.926Z,38.67
2023-05-19T10:41:49.921Z,36.82
2023-05-19T10:42:49.901Z,38.49
2023-05-19T10:43:49.891Z,40.85
2023-05-19T10:44:49.885Z,39.49
2023-05-19T10:45:49.877Z,40.45
2023-05-19T10:46:49.869Z,39.05
2023-05-19T10:47:49.876Z,38.17
2023-05-19T10:48:49.851Z,35.99
2023-05-19T10:49:49.832Z,38.53
2023-05-19T10:50:49.827Z,41.00
2023-05-19T10:51:49.851Z,41.35
2023-05-19T10:52:49.804Z,42.55
2023-05-19T10:53:49.812Z,42.19
2023-05-19T10:54:49.780Z,40.58
2023-05-19T10:55:49.778Z,40.86
2023-05-19T10:56:49.763Z,39.83
2023-05-19T10:57:49.754Z,40.13
2023-05-19T10:58:49.752Z,40.93
2023-05-19T10:59:49.746Z,39.42
2023-05-19T11:00:49.722Z,38.54
2023-05-19T11:01:49.735Z,41.49
2023-05-19T11:02:49.746Z,38.69
2023-05-19T11:03:49.726Z,36.07
2023-05-19T11:04:51.620Z,39.04
2023-05-19T11:05:49.691Z,42.41
2023-05-19T11:06:49.662Z,40.45
2023-05-19T11:07:49.668Z,40.27
2023-05-19T11:08:49.643Z,40.58
2023-05-19T11:09:49.639Z,39.02
2023-05-19T11:10:49.623Z,40.69
2023-05-19T11:11:49.612Z,40.75
2023-05-19T11:12:49.601Z,42.05
2023-05-19T11:13:49.593Z,41.31
2023-05-19T11:14:49.586Z,42.71
2023-05-19T11:15:49.573Z,41.53
2023-05-19T11:16:49.626Z,40.22
2023-05-19T11:17:49.688Z,40.78
2023-05-19T11:18:49.673Z,39.14
2023-05-19T11:19:49.532Z,38.53
2023-05-19T11:20:49.582Z,35.93
2023-05-19T11:21:49.509Z,41.39
2023-05-19T11:22:49.499Z,38.29
2023-05-19T11:23:49.567Z,38.43
2023-05-19T11:24:49.479Z,39.45
2023-05-19T11:25:49.470Z,40.33
2023-05-19T11:26:49.460Z,40.37
2023-05-19T11:27:49.449Z,33.08
2023-05-19T11:28:49.439Z,33.86
2023-05-19T11:29:49.444Z,36.32
2023-05-19T11:30:49.420Z,41.29
2023-05-19T11:31:49.451Z,36.57
2023-05-19T11:32:49.410Z,38.50
2023-05-19T11:33:49.390Z,36.96
2023-05-19T11:34:49.394Z,36.64
2023-05-19T11:35:49.470Z,37.44
2023-05-19T11:36:49.358Z,40.64
2023-05-19T11:37:49.348Z,40.29
2023-05-19T11:38:49.348Z,38.69
2023-05-19T11:39:49.423Z,38.25
2023-05-19T11:40:49.313Z,36.59
2023-05-19T11:41:49.306Z,33.76
2023-05-19T11:42:49.295Z,32.23
2023-05-19T11:43:49.288Z,35.24
2023-05-19T11:44:49.279Z,37.35
2023-05-19T11:45:49.299Z,36.60
2023-05-19T11:46:49.434Z,37.56
2023-05-19T11:48:01.141Z,38.64
2023-05-19T11:48:50.270Z,34.52
2023-05-19T11:49:49.228Z,37.45
2023-05-19T11:50:49.234Z,38.64
2023-05-19T11:51:49.213Z,38.18
2023-05-19T11:52:49.192Z,36.32
2023-05-19T11:53:49.182Z,38.30
2023-05-19T11:54:49.178Z,38.60
2023-05-19T11:55:49.855Z,38.06
2023-05-19T11:56:49.172Z,38.30
2023-05-19T11:58:02.182Z,34.69
2023-05-19T11:58:50.168Z,35.51
2023-05-19T11:59:49.132Z,39.33
2023-05-19T12:00:49.118Z,36.34
2023-05-19T12:01:49.109Z,36.05
2023-05-19T12:02:49.249Z,37.86
2023-05-19T12:03:49.361Z,35.27
2023-05-19T12:04:49.122Z,37.17
2023-05-19T12:05:49.568Z,36.59
2023-05-19T12:06:49.086Z,38.69
2023-05-19T12:07:49.046Z,36.30
2023-05-19T12:08:49.033Z,36.23
2023-05-19T12:09:49.025Z,35.94
2023-05-19T12:10:49.009Z,39.61
2023-05-19T12:11:49.029Z,38.25
2023-05-19T12:12:48.993Z,36.60
2023-05-19T12:13:48.988Z,39.47
2023-05-19T12:14:48.980Z,36.34
2023-05-19T12:15:48.985Z,36.60
2023-05-19T12:16:49.144Z,36.65
2023-05-19T12:17:48.974Z,36.45
2023-05-19T12:18:48.967Z,35.65
2023-05-19T12:19:48.930Z,37.65
2023-05-19T12:20:48.915Z,36.88
2023-05-19T12:21:48.910Z,34.89
2023-05-19T12:22:48.897Z,35.68
2023-05-19T12:23:48.885Z,40.55
2023-05-19T12:24:48.872Z,40.63
2023-05-19T12:25:48.921Z,37.60
2023-05-19T12:26:48.858Z,38.19
2023-05-19T12:27:48.874Z,37.97
2023-05-19T12:28:48.844Z,37.65
2023-05-19T12:29:48.822Z,35.00
2023-05-19T12:30:48.809Z,36.96
2023-05-19T12:31:48.841Z,35.12
2023-05-19T12:32:48.844Z,38.32
2023-05-19T12:33:48.784Z,39.09
2023-05-19T12:34:48.782Z,33.49
2023-05-19T12:35:48.767Z,33.91
2023-05-19T12:36:48.757Z,34.31
2023-05-19T12:37:48.746Z,34.75
2023-05-19T12:38:48.744Z,34.19
2023-05-19T12:39:48.727Z,36.25
2023-05-19T12:40:48.714Z,34.79
2023-05-19T12:41:48.702Z,35.39
2023-05-19T12:42:48.738Z,34.71
2023-05-19T12:43:48.718Z,33.21
2023-05-19T12:44:48.674Z,33.21
2023-05-19T12:45:48.706Z,32.01
2023-05-19T12:46:48.654Z,33.01
2023-05-19T12:47:48.702Z,32.56
2023-05-19T12:48:48.644Z,36.63
2023-05-19T12:49:48.626Z,36.38
2023-05-19T12:50:48.622Z,37.15
2023-05-19T12:51:48.607Z,36.59
2023-05-19T12:52:48.602Z,36.47